createdAt,value
2023-04-24T00:01:51.270Z,0.20
2023-04-24T00:04:18.242Z,0.35
2023-04-24T00:06:44.989Z,0.40
2023-04-24T00:09:11.398Z,0.50
2023-04-24T00:11:37.813Z,0.50
2023-04-24T00:14:04.214Z,0.40
2023-04-24T00:16:30.797Z,0.30
2023-04-24T00:18:57.173Z,0.28
2023-04-24T00:21:26.592Z,0.20
2023-04-24T00:23:53.884Z,0.50
2023-04-24T00:26:20.303Z,0.38
2023-04-24T00:28:46.671Z,0.30
2023-04-24T00:31:13.240Z,0.40
2023-04-24T00:33:39.626Z,0.28
2023-04-24T00:36:07.050Z,0.30
2023-04-24T00:38:33.435Z,0.30
2023-04-24T00:40:59.766Z,0.63
2023-04-24T00:43:26.258Z,0.20
2023-04-24T00:45:52.754Z,0.45
2023-04-24T00:48:19.207Z,0.10
2023-04-24T00:50:46.219Z,0.30
2023-04-24T00:53:12.654Z,0.30
2023-04-24T00:55:39.062Z,0.38
2023-04-24T00:58:05.825Z,0.17
2023-04-24T01:00:32.561Z,0.08
2023-04-24T01:03:00.255Z,0.20
2023-04-24T01:05:26.995Z,0.28
2023-04-24T01:07:53.533Z,0.35
2023-04-24T01:10:21.290Z,0.30
2023-04-24T01:12:47.701Z,0.32
2023-04-24T01:15:14.166Z,0.40
2023-04-24T01:17:40.653Z,0.20
2023-04-24T01:20:07.286Z,0.30
2023-04-24T01:22:34.889Z,0.30
2023-04-24T01:25:01.370Z,0.30
2023-04-24T01:27:27.778Z,0.30
2023-04-24T01:29:54.512Z,0.35
2023-04-24T01:32:21.018Z,0.38
2023-04-24T01:34:47.886Z,0.10
2023-04-24T01:37:14.238Z,0.30
2023-04-24T01:39:40.873Z,0.22
2023-04-24T01:42:08.013Z,0.10
2023-04-24T01:44:34.508Z,0.32
2023-04-24T01:47:01.757Z,0.17
2023-04-24T01:49:28.418Z,0.10
2023-04-24T01:51:54.785Z,0.20
2023-04-24T01:54:21.212Z,0.30
2023-04-24T01:56:47.779Z,0.30
2023-04-24T01:59:14.172Z,0.35
2023-04-24T02:01:40.666Z,0.30
2023-04-24T02:04:07.896Z,0.30
2023-04-24T02:06:34.354Z,0.22
2023-04-24T02:09:01.174Z,0.52
2023-04-24T02:11:27.554Z,0.20
2023-04-24T02:13:54.180Z,0.40
2023-04-24T02:16:20.826Z,0.20
2023-04-24T02:18:47.223Z,0.17
2023-04-24T02:21:13.591Z,0.20
2023-04-24T02:23:39.975Z,0.30
2023-04-24T02:26:06.473Z,0.20
2023-04-24T02:28:32.870Z,0.30
2023-04-24T02:30:59.688Z,0.20
2023-04-24T02:33:26.046Z,0.20
2023-04-24T02:35:52.425Z,0.13
2023-04-24T02:38:18.791Z,0.30
2023-04-24T02:40:45.309Z,0.25
2023-04-24T02:43:11.612Z,0.25
2023-04-24T02:45:39.080Z,0.40
2023-04-24T02:48:05.677Z,0.30
2023-04-24T02:50:32.780Z,0.22
2023-04-24T02:52:59.171Z,0.30
2023-04-24T02:55:26.083Z,0.30
2023-04-24T02:57:52.418Z,0.17
2023-04-24T03:00:18.860Z,0.25
2023-04-24T03:02:45.412Z,0.20
2023-04-24T03:05:13.252Z,0.28
2023-04-24T03:07:39.632Z,0.10
2023-04-24T03:10:06.690Z,0.30
2023-04-24T03:12:33.108Z,0.30
2023-04-24T03:14:59.495Z,0.45
2023-04-24T03:17:25.872Z,0.20
2023-04-24T03:19:52.330Z,0.20
2023-04-24T03:22:18.649Z,0.20
2023-04-24T03:24:45.024Z,0.10
2023-04-24T03:27:11.469Z,0.22
2023-04-24T03:29:37.909Z,0.22
2023-04-24T03:32:04.474Z,0.20
2023-04-24T03:34:30.969Z,0.20
2023-04-24T03:36:57.304Z,0.30
2023-04-24T03:39:23.641Z,0.13
2023-04-24T03:41:50.011Z,0.20
2023-04-24T03:44:16.347Z,0.30
2023-04-24T03:46:42.730Z,0.30
2023-04-24T03:49:09.088Z,0.32
2023-04-24T03:51:35.424Z,0.30
2023-04-24T03:54:01.749Z,0.40
2023-04-24T03:56:28.159Z,0.20
2023-04-24T03:58:54.534Z,0.25
2023-04-24T04:01:21.975Z,0.40
2023-04-24T04:03:48.702Z,0.50
2023-04-24T04:06:15.617Z,0.40
2023-04-24T04:08:42.114Z,0.30
2023-04-24T04:11:08.473Z,0.20
2023-04-24T04:13:34.828Z,0.40
2023-04-24T04:16:01.243Z,0.63
2023-04-24T04:18:27.806Z,0.68
2023-04-24T04:20:54.124Z,0.82
2023-04-24T04:23:20.542Z,0.68
2023-04-24T04:25:48.019Z,1.17
2023-04-24T04:28:14.498Z,0.93
2023-04-24T04:30:41.253Z,1.45
2023-04-24T04:33:07.711Z,1.23
2023-04-24T04:35:34.530Z,1.38
2023-04-24T04:38:01.744Z,1.20
2023-04-24T04:40:29.439Z,1.25
2023-04-24T04:42:55.855Z,1.55
2023-04-24T04:45:22.546Z,1.27
2023-04-24T04:47:49.677Z,1.85
2023-04-24T04:50:17.590Z,2.45
2023-04-24T04:52:43.945Z,2.75
2023-04-24T04:55:10.351Z,2.30
2023-04-24T04:57:36.714Z,4.68
2023-04-24T05:00:03.167Z,4.13
2023-04-24T05:02:29.784Z,3.67
2023-04-24T05:04:56.303Z,4.68
2023-04-24T05:07:22.887Z,4.18
2023-04-24T05:09:49.201Z,4.18
2023-04-24T05:12:15.530Z,4.20
2023-04-24T05:14:41.957Z,3.42
2023-04-24T05:17:08.383Z,3.45
2023-04-24T05:19:36.973Z,3.22
2023-04-24T05:22:05.218Z,3.13
2023-04-24T05:24:31.618Z,3.47
2023-04-24T05:26:59.632Z,3.10
2023-04-24T05:29:27.208Z,3.50
2023-04-24T05:31:53.687Z,3.72
2023-04-24T05:34:20.033Z,3.65
2023-04-24T05:36:46.381Z,3.80
2023-04-24T05:39:12.724Z,2.92
2023-04-24T05:41:39.070Z,2.60
2023-04-24T05:44:05.445Z,3.38
2023-04-24T05:46:31.800Z,3.70
2023-04-24T05:48:58.378Z,2.92
2023-04-24T05:51:24.875Z,2.85
2023-04-24T05:53:51.319Z,3.33
2023-04-24T05:56:17.681Z,2.53
2023-04-24T05:58:44.165Z,2.60
2023-04-24T06:01:10.629Z,3.03
2023-04-24T06:03:37.217Z,3.47
2023-04-24T06:06:03.784Z,2.75
2023-04-24T06:08:30.128Z,3.28
2023-04-24T06:10:56.522Z,3.33
2023-04-24T06:13:22.847Z,2.55
2023-04-24T06:15:49.260Z,2.85
2023-04-24T06:18:16.072Z,2.33
2023-04-24T06:20:42.479Z,3.03
2023-04-24T06:23:08.817Z,2.92
2023-04-24T06:25:35.272Z,2.60
2023-04-24T06:28:02.582Z,3.97
2023-04-24T06:30:29.264Z,2.65
2023-04-24T06:32:58.718Z,2.13
2023-04-24T06:35:29.267Z,3.13
2023-04-24T06:37:57.218Z,2.40
2023-04-24T06:40:23.585Z,1.77
2023-04-24T06:42:49.889Z,3.10
2023-04-24T06:45:16.322Z,2.15
2023-04-24T06:47:42.970Z,2.75
2023-04-24T06:50:09.685Z,2.50
2023-04-24T06:52:36.362Z,2.72
2023-04-24T06:55:03.719Z,2.08
2023-04-24T06:57:30.748Z,2.28
2023-04-24T06:59:57.137Z,2.40
2023-04-24T07:02:23.613Z,2.22
2023-04-24T07:04:50.041Z,2.85
2023-04-24T07:07:17.582Z,2.28
2023-04-24T07:09:45.548Z,1.90
2023-04-24T07:12:12.362Z,2.15
2023-04-24T07:14:39.060Z,1.63
2023-04-24T07:17:05.683Z,2.15
2023-04-24T07:19:32.042Z,2.40
2023-04-24T07:21:59.292Z,1.73
2023-04-24T07:24:26.900Z,1.70
2023-04-24T07:26:53.803Z,1.95
2023-04-24T07:29:20.886Z,2.22
2023-04-24T07:31:47.560Z,1.58
2023-04-24T07:34:13.985Z,1.98
2023-04-24T07:36:41.712Z,2.03
2023-04-24T07:39:09.199Z,1.50
2023-04-24T07:41:35.656Z,2.00
2023-04-24T07:44:02.039Z,1.80
2023-04-24T07:46:30.956Z,2.17
2023-04-24T07:49:11.660Z,2.08
2023-04-24T07:51:40.171Z,2.85
2023-04-24T07:54:07.039Z,2.45
2023-04-24T07:56:34.045Z,1.95
2023-04-24T07:59:00.979Z,1.63
2023-04-24T08:01:27.384Z,1.70
2023-04-24T08:03:53.927Z,2.03
2023-04-24T08:06:20.716Z,1.85
2023-04-24T08:08:47.134Z,1.98
2023-04-24T08:11:13.435Z,1.65
2023-04-24T08:13:39.790Z,2.30
2023-04-24T08:16:06.441Z,1.92
2023-04-24T08:18:32.857Z,1.45
2023-04-24T08:21:02.376Z,0.90
2023-04-24T08:23:29.852Z,1.80
2023-04-24T08:25:56.338Z,1.42
2023-04-24T08:28:22.793Z,1.38
2023-04-24T08:30:49.243Z,1.23
2023-04-24T08:33:16.032Z,1.33
2023-04-24T08:35:42.380Z,1.23
2023-04-24T08:38:08.747Z,1.35
2023-04-24T08:40:35.967Z,1.50
2023-04-24T08:43:02.667Z,1.10
2023-04-24T08:45:29.023Z,1.10
2023-04-24T08:47:55.829Z,0.98
2023-04-24T08:50:23.413Z,1.25
2023-04-24T08:52:54.532Z,1.80
2023-04-24T08:55:21.545Z,0.90
2023-04-24T08:57:52.370Z,0.73
2023-04-24T09:00:19.723Z,0.80
2023-04-24T09:02:47.808Z,0.82
2023-04-24T09:05:14.898Z,0.70
2023-04-24T09:07:42.655Z,1.02
2023-04-24T09:10:09.165Z,0.88
2023-04-24T09:12:35.820Z,0.63
2023-04-24T09:15:04.576Z,0.80
2023-04-24T09:17:35.181Z,1.30
2023-04-24T09:20:01.543Z,0.80
2023-04-24T09:22:30.780Z,1.20
2023-04-24T09:25:06.432Z,0.88
2023-04-24T09:27:32.975Z,0.70
2023-04-24T09:29:59.999Z,0.90
2023-04-24T09:32:26.909Z,0.80
2023-04-24T09:35:13.199Z,1.17
2023-04-24T09:45:11.894Z,0.68
2023-04-24T09:47:41.774Z,0.40
2023-04-24T09:50:15.920Z,0.68
2023-04-24T09:52:44.541Z,0.80
2023-04-24T09:55:21.135Z,0.70
2023-04-24T09:57:55.530Z,0.93
2023-04-24T10:00:31.620Z,0.60
2023-04-24T10:02:59.013Z,1.00
2023-04-24T10:05:30.307Z,0.70
2023-04-24T10:08:04.196Z,0.80
2023-04-24T10:10:31.571Z,0.55
2023-04-24T10:12:58.097Z,0.60
2023-04-24T10:15:25.416Z,0.45
2023-04-24T10:17:54.806Z,0.70
2023-04-24T10:20:21.181Z,1.15
2023-04-24T10:22:50.923Z,0.60
2023-04-24T10:25:17.873Z,0.90
2023-04-24T10:27:47.083Z,1.20
2023-04-24T10:30:14.016Z,0.80
2023-04-24T10:32:40.602Z,1.05
2023-04-24T10:35:07.716Z,1.00
2023-04-24T10:37:45.135Z,0.68
2023-04-24T10:40:12.025Z,0.85
2023-04-24T10:42:42.477Z,0.95
2023-04-24T10:45:16.955Z,0.93
2023-04-24T10:47:43.509Z,1.20
2023-04-24T10:50:12.965Z,1.67
2023-04-24T10:52:49.353Z,1.00
2023-04-24T10:55:16.379Z,0.45
2023-04-24T10:58:02.046Z,1.00
2023-04-24T11:00:28.671Z,0.50
2023-04-24T11:02:56.567Z,0.77
2023-04-24T11:05:23.470Z,0.80
2023-04-24T11:08:08.316Z,0.70
2023-04-24T11:10:34.760Z,0.65
2023-04-24T11:13:02.942Z,0.95
2023-04-24T11:15:30.547Z,0.95
2023-04-24T11:17:57.132Z,1.50
2023-04-24T11:20:28.370Z,0.60
2023-04-24T11:22:55.866Z,1.10
2023-04-24T11:25:23.602Z,0.90
2023-04-24T11:27:51.023Z,1.00
2023-04-24T11:30:20.990Z,0.85
2023-04-24T11:32:52.156Z,1.25
2023-04-24T11:35:24.270Z,1.00
2023-04-24T11:40:23.750Z,1.02
2023-04-24T11:42:51.214Z,0.80
2023-04-24T11:45:17.620Z,0.93
2023-04-24T11:47:44.958Z,1.27
2023-04-24T11:50:15.122Z,1.23
2023-04-24T11:52:41.938Z,1.02
2023-04-24T11:55:28.734Z,1.65
2023-04-24T11:57:57.535Z,1.02
2023-04-24T12:00:28.771Z,1.48
2023-04-24T12:03:07.526Z,1.08
2023-04-24T12:05:34.284Z,0.90
2023-04-24T12:08:00.741Z,1.52
2023-04-24T12:10:28.548Z,1.48
2023-04-24T12:12:56.349Z,1.10
2023-04-24T12:15:23.092Z,1.10
2023-04-24T12:17:51.400Z,1.45
2023-04-24T12:20:18.152Z,1.40
2023-04-24T12:22:45.728Z,1.35
2023-04-24T12:25:12.402Z,1.48
2023-04-24T12:27:38.843Z,1.90
2023-04-24T12:30:06.536Z,1.95
2023-04-24T12:32:33.159Z,1.95
2023-04-24T12:34:59.607Z,1.40
2023-04-24T12:37:26.692Z,1.00
2023-04-24T12:40:07.926Z,1.83
2023-04-24T12:42:34.840Z,1.45
2023-04-24T12:45:03.499Z,1.70
2023-04-24T12:47:30.049Z,1.63
2023-04-24T12:49:56.561Z,1.38
2023-04-24T12:52:26.848Z,1.63
2023-04-24T12:54:57.124Z,1.58
2023-04-24T12:57:27.098Z,1.80
2023-04-24T12:59:55.138Z,2.22
2023-04-24T13:02:23.446Z,2.60
2023-04-24T13:04:50.134Z,2.22
2023-04-24T13:07:16.886Z,1.88
2023-04-24T13:09:43.742Z,1.75
2023-04-24T13:12:10.871Z,1.70
2023-04-24T13:14:37.755Z,1.50
2023-04-24T13:17:04.524Z,1.40
2023-04-24T13:19:31.340Z,1.60
2023-04-24T13:21:58.471Z,1.98
2023-04-24T13:24:27.686Z,1.98
2023-04-24T13:26:54.211Z,1.65
2023-04-24T13:29:21.141Z,1.35
2023-04-24T13:31:47.798Z,1.55
2023-04-24T13:34:14.617Z,1.63
2023-04-24T13:36:41.390Z,2.10
2023-04-24T13:39:07.775Z,1.67
2023-04-24T13:41:34.655Z,1.77
2023-04-24T13:44:01.020Z,2.10
2023-04-24T13:46:27.542Z,1.85
2023-04-24T13:48:54.015Z,1.73
2023-04-24T13:51:20.378Z,1.10
2023-04-24T13:53:46.728Z,1.73
2023-04-24T13:56:14.747Z,2.47
2023-04-24T13:58:41.434Z,2.08
2023-04-24T14:01:07.886Z,2.40
2023-04-24T14:03:34.659Z,1.60
2023-04-24T14:06:01.276Z,1.52
2023-04-24T14:08:27.717Z,2.17
2023-04-24T14:10:54.060Z,1.75
2023-04-24T14:13:20.462Z,2.13
2023-04-24T14:15:46.895Z,2.30
2023-04-24T14:18:13.369Z,2.90
2023-04-24T14:20:39.887Z,2.88
2023-04-24T14:23:06.313Z,2.30
2023-04-24T14:25:33.124Z,2.10
2023-04-24T14:27:59.582Z,1.40
2023-04-24T14:30:26.058Z,2.20
2023-04-24T14:32:52.522Z,2.53
2023-04-24T14:35:18.990Z,2.10
2023-04-24T14:37:45.428Z,2.22
2023-04-24T14:40:29.906Z,2.10
2023-04-24T14:42:58.932Z,1.77
2023-04-24T14:45:25.740Z,2.25
2023-04-24T14:47:52.207Z,2.05
2023-04-24T14:50:24.905Z,1.75
2023-04-24T14:52:51.476Z,1.95
2023-04-24T14:55:17.947Z,2.22
2023-04-24T14:57:44.566Z,2.17
2023-04-24T15:00:11.197Z,2.05
2023-04-24T15:02:40.865Z,2.10
2023-04-24T15:05:07.881Z,2.08
2023-04-24T15:07:34.411Z,2.22
2023-04-24T15:10:00.963Z,1.40
2023-04-24T15:12:27.388Z,1.35
2023-04-24T15:14:53.719Z,2.22
2023-04-24T15:17:20.115Z,1.90
2023-04-24T15:19:48.977Z,2.60
2023-04-24T15:22:18.148Z,1.92
2023-04-24T15:24:44.511Z,2.70
2023-04-24T15:27:11.513Z,2.20
2023-04-24T15:29:38.650Z,2.58
2023-04-24T15:32:06.217Z,2.80
2023-04-24T15:34:34.159Z,1.80
2023-04-24T15:37:01.176Z,2.70
2023-04-24T15:39:28.034Z,2.42
2023-04-24T15:41:54.483Z,2.28
2023-04-24T15:44:22.062Z,2.65
2023-04-24T15:46:48.441Z,2.55
2023-04-24T15:49:15.184Z,1.88
2023-04-24T15:51:41.530Z,2.00
2023-04-24T15:54:10.081Z,3.22
2023-04-24T15:56:37.136Z,2.70
2023-04-24T15:59:04.082Z,2.55
2023-04-24T16:01:31.519Z,2.30
2023-04-24T16:03:58.119Z,2.03
2023-04-24T16:06:24.645Z,2.10
2023-04-24T16:08:51.193Z,2.22
2023-04-24T16:11:17.589Z,2.10
2023-04-24T16:13:44.019Z,2.97
2023-04-24T16:16:10.638Z,2.45
2023-04-24T16:18:37.083Z,1.95
2023-04-24T16:21:03.508Z,2.05
2023-04-24T16:23:29.874Z,2.47
2023-04-24T16:25:56.315Z,2.67
2023-04-24T16:28:22.816Z,2.67
2023-04-24T16:30:49.174Z,2.67
2023-04-24T16:33:15.999Z,2.70
2023-04-24T16:35:43.266Z,2.10
2023-04-24T16:38:09.697Z,2.80
2023-04-24T16:40:36.061Z,1.73
2023-04-24T16:43:02.523Z,2.88
2023-04-24T16:45:28.864Z,2.00
2023-04-24T16:47:55.500Z,2.22
2023-04-24T16:50:22.156Z,2.25
2023-04-24T16:52:48.582Z,1.80
2023-04-24T16:55:14.977Z,2.63
2023-04-24T16:57:41.426Z,2.40
2023-04-24T17:00:08.773Z,2.58
2023-04-24T17:02:35.396Z,2.53
2023-04-24T17:05:02.174Z,3.22
2023-04-24T17:07:29.204Z,2.13
2023-04-24T17:09:56.019Z,2.05
2023-04-24T17:12:22.411Z,2.55
2023-04-24T17:14:48.740Z,2.00
2023-04-24T17:17:15.344Z,1.70
2023-04-24T17:19:41.781Z,2.08
2023-04-24T17:22:08.217Z,2.50
2023-04-24T17:24:34.674Z,2.28
2023-04-24T17:27:07.985Z,2.05
2023-04-24T17:29:40.825Z,1.92
2023-04-24T17:32:07.373Z,2.42
2023-04-24T17:34:33.798Z,2.38
2023-04-24T17:37:00.445Z,2.13
2023-04-24T17:39:26.798Z,2.30
2023-04-24T17:41:53.212Z,1.58
2023-04-24T17:44:19.603Z,2.05
2023-04-24T17:46:46.013Z,2.13
2023-04-24T17:49:12.359Z,2.50
2023-04-24T17:51:38.775Z,1.60
2023-04-24T17:54:05.129Z,1.95
2023-04-24T17:56:31.694Z,2.17
2023-04-24T17:58:58.345Z,1.80
2023-04-24T18:01:24.739Z,2.20
2023-04-24T18:03:51.539Z,2.45
2023-04-24T18:06:18.861Z,1.92
2023-04-24T18:08:45.572Z,1.40
2023-04-24T18:11:12.029Z,1.45
2023-04-24T18:13:41.152Z,1.92
2023-04-24T18:16:07.790Z,0.90
2023-04-24T18:18:34.214Z,1.38
2023-04-24T18:21:00.789Z,1.20
2023-04-24T18:23:27.451Z,1.42
2023-04-24T18:25:53.972Z,1.20
2023-04-24T18:28:20.447Z,1.10
2023-04-24T18:30:47.483Z,1.20
2023-04-24T18:33:14.010Z,0.80
2023-04-24T18:35:40.906Z,1.33
2023-04-24T18:38:07.347Z,0.88
2023-04-24T18:40:33.744Z,0.90
2023-04-24T18:43:00.326Z,0.90
2023-04-24T18:45:26.797Z,1.13
2023-04-24T18:47:53.296Z,0.77
2023-04-24T18:50:20.107Z,0.90
2023-04-24T18:52:46.589Z,0.85
2023-04-24T18:55:13.039Z,1.10
2023-04-24T18:57:39.561Z,1.23
2023-04-24T19:00:06.441Z,0.90
2023-04-24T19:02:33.981Z,0.73
2023-04-24T19:05:00.598Z,1.30
2023-04-24T19:07:27.116Z,1.17
2023-04-24T19:09:53.509Z,0.70
2023-04-24T19:12:22.210Z,1.02
2023-04-24T19:14:49.579Z,1.52
2023-04-24T19:17:22.411Z,0.95
2023-04-24T19:19:48.879Z,1.15
2023-04-24T19:22:15.515Z,1.20
2023-04-24T19:24:41.991Z,1.23
2023-04-24T19:27:08.602Z,1.50
2023-04-24T19:29:35.108Z,0.85
2023-04-24T19:32:01.583Z,1.00
2023-04-24T19:34:29.336Z,1.10
2023-04-24T19:36:55.732Z,1.55
2023-04-24T19:39:22.286Z,1.17
2023-04-24T19:41:48.622Z,1.08
2023-04-24T19:44:17.159Z,0.65
2023-04-24T19:46:43.710Z,1.65
2023-04-24T19:49:10.262Z,1.70
2023-04-24T19:51:37.618Z,0.88
2023-04-24T19:54:06.217Z,1.48
2023-04-24T19:56:32.727Z,1.65
2023-04-24T19:58:59.169Z,1.58
2023-04-24T20:01:25.847Z,0.98
2023-04-24T20:03:52.435Z,1.45
2023-04-24T20:06:19.187Z,1.55
2023-04-24T20:08:45.651Z,1.52
2023-04-24T20:11:12.172Z,1.48
2023-04-24T20:13:38.563Z,1.90
2023-04-24T20:16:05.117Z,1.65
2023-04-24T20:18:31.718Z,1.42
2023-04-24T20:20:59.712Z,0.93
2023-04-24T20:23:26.705Z,1.30
2023-04-24T20:25:58.100Z,1.55
2023-04-24T20:28:26.238Z,1.60
2023-04-24T20:30:52.629Z,1.35
2023-04-24T20:33:19.515Z,1.52
2023-04-24T20:35:45.968Z,1.58
2023-04-24T20:38:12.410Z,1.67
2023-04-24T20:40:46.852Z,1.48
2023-04-24T20:43:22.840Z,1.60
2023-04-24T20:45:49.629Z,1.58
2023-04-24T20:48:16.152Z,2.10
2023-04-24T20:50:42.966Z,1.70
2023-04-24T20:53:09.378Z,1.35
2023-04-24T20:55:36.237Z,1.20
2023-04-24T20:58:02.784Z,1.35
2023-04-24T21:00:29.502Z,1.50
2023-04-24T21:02:55.926Z,1.25
2023-04-24T21:05:22.387Z,1.67
2023-04-24T21:07:48.890Z,1.58
2023-04-24T21:10:15.298Z,1.85
2023-04-24T21:12:41.631Z,1.27
2023-04-24T21:15:08.243Z,1.50
2023-04-24T21:17:34.746Z,1.73
2023-04-24T21:20:01.151Z,2.17
2023-04-24T21:22:27.571Z,1.90
2023-04-24T21:24:53.903Z,1.38
2023-04-24T21:27:20.499Z,1.80
2023-04-24T21:29:47.140Z,1.75
2023-04-24T21:32:13.673Z,1.95
2023-04-24T21:34:40.305Z,1.95
2023-04-24T21:37:06.702Z,2.85
2023-04-24T21:39:33.005Z,2.28
2023-04-24T21:41:59.357Z,2.17
2023-04-24T21:44:25.830Z,1.67
2023-04-24T21:46:52.130Z,2.13
2023-04-24T21:49:18.573Z,2.25
2023-04-24T21:51:45.046Z,2.35
2023-04-24T21:54:11.421Z,1.40
2023-04-24T21:56:38.278Z,1.88
2023-04-24T21:59:05.902Z,2.60
2023-04-24T22:01:33.708Z,1.90
2023-04-24T22:04:00.725Z,2.03
2023-04-24T22:06:27.263Z,2.33
2023-04-24T22:08:53.581Z,1.73
2023-04-24T22:11:26.919Z,1.70
2023-04-24T22:13:54.336Z,2.50
2023-04-24T22:16:22.709Z,2.08
2023-04-24T22:18:49.631Z,1.58
2023-04-24T22:21:16.059Z,3.00
2023-04-24T22:23:42.441Z,2.70
2023-04-24T22:26:08.829Z,2.97
2023-04-24T22:28:35.595Z,2.50
2023-04-24T22:31:02.097Z,2.53
2023-04-24T22:33:28.449Z,2.28
2023-04-24T22:35:55.195Z,2.28
2023-04-24T22:38:21.524Z,2.63
2023-04-24T22:40:47.890Z,2.40
2023-04-24T22:43:14.353Z,2.90
2023-04-24T22:45:40.685Z,2.42
2023-04-24T22:48:07.092Z,3.05
2023-04-24T22:50:33.440Z,2.20
2023-04-24T22:52:59.749Z,2.20
2023-04-24T22:55:26.099Z,2.75
2023-04-24T22:57:52.442Z,2.20
2023-04-24T23:00:19.614Z,2.20
2023-04-24T23:02:46.133Z,3.08
2023-04-24T23:05:12.712Z,2.03
2023-04-24T23:07:39.164Z,2.05
2023-04-24T23:10:05.989Z,3.00
2023-04-24T23:12:32.418Z,3.35
2023-04-24T23:14:59.064Z,2.78
2023-04-24T23:17:25.619Z,2.75
2023-04-24T23:19:51.950Z,2.88
2023-04-24T23:22:18.431Z,2.58
2023-04-24T23:24:44.777Z,2.22
2023-04-24T23:27:11.109Z,2.63
2023-04-24T23:29:37.429Z,2.65
2023-04-24T23:32:03.919Z,2.33
2023-04-24T23:34:30.444Z,2.40
2023-04-24T23:36:56.780Z,2.33
2023-04-24T23:39:23.156Z,2.33
2023-04-24T23:41:49.665Z,2.22
2023-04-24T23:44:16.154Z,1.77
2023-04-24T23:46:42.477Z,2.05
2023-04-24T23:49:09.133Z,2.20
2023-04-24T23:51:35.527Z,2.63
2023-04-24T23:54:01.892Z,2.03
2023-04-24T23:56:29.239Z,1.60
2023-04-24T23:58:55.842Z,1.88
